N468JL KROA-KCLT
Flight info
| Callsign | N468JL |
|---|---|
| Flight time | 0h 46m |
| Altitude | 16000 |
| Route | KELLS MAJIC4 |
| Aircraft | BE20/L-VGD/C |
Departure
| Time | 2026-04-25 20:50 |
|---|---|
| Airport | Roanoke–Blacksburg Regional Airport (KROA) |
Arrival
| Time | 2026-04-25 21:36 |
|---|---|
| Airport | Charlotte Douglas International Airport (KCLT) |
| Time | Latitude | Longitude | Altitude | Speed | Heading |
|---|---|---|---|---|---|
| 2026-04-25 20:02 | 37.32449 | -79.97199 | 1179 ft | 0 kts | 267° |
| 2026-04-25 20:25 | 37.32449 | -79.97200 | 1179 ft | 0 kts | 268° |
| 2026-04-25 20:27 | 37.32447 | -79.97209 | 1179 ft | 2 kts | 216° |
| 2026-04-25 20:27 | 37.32409 | -79.97225 | 1179 ft | 10 kts | 221° |
| 2026-04-25 20:27 | 37.32375 | -79.97298 | 1179 ft | 9 kts | 250° |
| 2026-04-25 20:27 | 37.32353 | -79.97353 | 1179 ft | 6 kts | 235° |
| 2026-04-25 20:28 | 37.32329 | -79.97396 | 1179 ft | 6 kts | 234° |
| 2026-04-25 20:28 | 37.32314 | -79.97443 | 1179 ft | 6 kts | 287° |
| 2026-04-25 20:28 | 37.32359 | -79.97498 | 1179 ft | 13 kts | 310° |
| 2026-04-25 20:28 | 37.32398 | -79.97598 | 1179 ft | 12 kts | 317° |
| 2026-04-25 20:29 | 37.32479 | -79.97666 | 1179 ft | 17 kts | 324° |
| 2026-04-25 20:29 | 37.32584 | -79.97715 | 1179 ft | 11 kts | 45° |
| 2026-04-25 20:29 | 37.32632 | -79.97650 | 1179 ft | 13 kts | 49° |
| 2026-04-25 20:29 | 37.32730 | -79.97507 | 1179 ft | 31 kts | 49° |
| 2026-04-25 20:30 | 37.32874 | -79.97289 | 1179 ft | 31 kts | 49° |
| 2026-04-25 20:30 | 37.33000 | -79.97095 | 1179 ft | 27 kts | 50° |
| 2026-04-25 20:30 | 37.33101 | -79.96922 | 1179 ft | 22 kts | 54° |
| 2026-04-25 20:30 | 37.33197 | -79.96795 | 1179 ft | 18 kts | 49° |
| 2026-04-25 20:31 | 37.33254 | -79.96675 | 1179 ft | 15 kts | 95° |
| 2026-04-25 20:31 | 37.33254 | -79.96563 | 1179 ft | 11 kts | 62° |
| 2026-04-25 20:31 | 37.33275 | -79.96543 | 1179 ft | 0 kts | 345° |
| 2026-04-25 20:31 | 37.33276 | -79.96543 | 1179 ft | 0 kts | 345° |
| 2026-04-25 20:39 | 37.33277 | -79.96543 | 1179 ft | 0 kts | 345° |
| 2026-04-25 20:47 | 37.33279 | -79.96544 | 1179 ft | 1 kts | 345° |
| 2026-04-25 20:48 | 37.33282 | -79.96545 | 1179 ft | 3 kts | 345° |
| 2026-04-25 20:49 | 37.33339 | -79.96574 | 1179 ft | 11 kts | 326° |
| 2026-04-25 20:49 | 37.33392 | -79.96632 | 1179 ft | 9 kts | 297° |
| 2026-04-25 20:49 | 37.33391 | -79.96675 | 1179 ft | 0 kts | 227° |
| 2026-04-25 20:49 | 37.33391 | -79.96676 | 1179 ft | 0 kts | 227° |
| 2026-04-25 20:50 | 37.33313 | -79.96790 | 1179 ft | 54 kts | 230° |
| 2026-04-25 20:50 | 37.32910 | -79.97378 | 1192 ft | 118 kts | 230° |
| 2026-04-25 20:50 | 37.32325 | -79.98212 | 1563 ft | 129 kts | 229° |
| 2026-04-25 20:50 | 37.31743 | -79.99045 | 2177 ft | 128 kts | 230° |
| 2026-04-25 20:51 | 37.31206 | -79.99965 | 2669 ft | 133 kts | 238° |
| 2026-04-25 20:51 | 37.30617 | -80.01058 | 2942 ft | 166 kts | 237° |
| 2026-04-25 20:51 | 37.29938 | -80.02310 | 3310 ft | 178 kts | 235° |
| 2026-04-25 20:51 | 37.29221 | -80.03582 | 3840 ft | 177 kts | 234° |
| 2026-04-25 20:52 | 37.28539 | -80.04847 | 4464 ft | 172 kts | 237° |
| 2026-04-25 20:52 | 37.28103 | -80.05670 | 4905 ft | 168 kts | 239° |
| 2026-04-25 20:52 | 37.27211 | -80.07201 | 5704 ft | 166 kts | 226° |
| 2026-04-25 20:52 | 37.26193 | -80.07999 | 6072 ft | 179 kts | 207° |
| 2026-04-25 20:53 | 37.25013 | -80.08494 | 6499 ft | 181 kts | 197° |
| 2026-04-25 20:53 | 37.23732 | -80.08594 | 7017 ft | 185 kts | 182° |
| 2026-04-25 20:53 | 37.22455 | -80.08489 | 7503 ft | 186 kts | 180° |
| 2026-04-25 20:53 | 37.21173 | -80.08279 | 8038 ft | 187 kts | 170° |
| 2026-04-25 20:54 | 37.19935 | -80.07716 | 8522 ft | 191 kts | 163° |
| 2026-04-25 20:54 | 37.18699 | -80.07064 | 8992 ft | 193 kts | 163° |
| 2026-04-25 20:54 | 37.17456 | -80.06397 | 9444 ft | 195 kts | 161° |
| 2026-04-25 20:54 | 37.16201 | -80.05719 | 9875 ft | 195 kts | 163° |
| 2026-04-25 20:55 | 37.14951 | -80.05086 | 10326 ft | 197 kts | 164° |
| 2026-04-25 20:55 | 37.13669 | -80.04448 | 10857 ft | 199 kts | 162° |
| 2026-04-25 20:55 | 37.12362 | -80.03786 | 11340 ft | 204 kts | 163° |
| 2026-04-25 20:55 | 37.11032 | -80.03142 | 11914 ft | 205 kts | 164° |
| 2026-04-25 20:56 | 37.09700 | -80.02503 | 12489 ft | 205 kts | 164° |
| 2026-04-25 20:56 | 37.08363 | -80.01866 | 13065 ft | 205 kts | 164° |
| 2026-04-25 20:56 | 37.07024 | -80.01230 | 13639 ft | 206 kts | 164° |
| 2026-04-25 20:56 | 37.05687 | -80.00595 | 14101 ft | 207 kts | 164° |
| 2026-04-25 20:57 | 37.04328 | -79.99955 | 14461 ft | 211 kts | 164° |
| 2026-04-25 20:57 | 37.02964 | -79.99314 | 14843 ft | 212 kts | 164° |
| 2026-04-25 20:57 | 37.01565 | -79.98652 | 15249 ft | 214 kts | 166° |
| 2026-04-25 20:57 | 37.00168 | -79.97993 | 15556 ft | 219 kts | 166° |
| 2026-04-25 20:58 | 36.98728 | -79.97314 | 15845 ft | 225 kts | 165° |
| 2026-04-25 20:58 | 36.97229 | -79.96609 | 15975 ft | 235 kts | 165° |
| 2026-04-25 20:58 | 36.95655 | -79.95854 | 16005 ft | 247 kts | 164° |
| 2026-04-25 20:58 | 36.94033 | -79.95068 | 15988 ft | 258 kts | 164° |
| 2026-04-25 20:59 | 36.92346 | -79.94227 | 15976 ft | 263 kts | 164° |
| 2026-04-25 20:59 | 36.90626 | -79.93388 | 15971 ft | 265 kts | 163° |
| 2026-04-25 20:59 | 36.88901 | -79.92522 | 15976 ft | 267 kts | 164° |
| 2026-04-25 20:59 | 36.87182 | -79.91690 | 15980 ft | 269 kts | 164° |
| 2026-04-25 21:00 | 36.85418 | -79.90850 | 15978 ft | 270 kts | 165° |
| 2026-04-25 21:00 | 36.84842 | -79.90578 | 15976 ft | 270 kts | 164° |
| 2026-04-25 21:00 | 36.80142 | -79.88272 | 15979 ft | 271 kts | 162° |
| 2026-04-25 21:01 | 36.78393 | -79.87399 | 15996 ft | 270 kts | 164° |
| 2026-04-25 21:01 | 36.76647 | -79.86541 | 16005 ft | 270 kts | 163° |
| 2026-04-25 21:01 | 36.74912 | -79.85703 | 16006 ft | 270 kts | 164° |
| 2026-04-25 21:01 | 36.73149 | -79.84866 | 16005 ft | 271 kts | 164° |
| 2026-04-25 21:02 | 36.71376 | -79.84030 | 16007 ft | 271 kts | 164° |
| 2026-04-25 21:02 | 36.69611 | -79.83200 | 16007 ft | 271 kts | 164° |
| 2026-04-25 21:02 | 36.67860 | -79.82378 | 16008 ft | 272 kts | 164° |
| 2026-04-25 21:02 | 36.66065 | -79.81536 | 16007 ft | 272 kts | 164° |
| 2026-04-25 21:03 | 36.64317 | -79.80717 | 16018 ft | 273 kts | 163° |
| 2026-04-25 21:03 | 36.62509 | -79.80114 | 15997 ft | 266 kts | 181° |
| 2026-04-25 21:03 | 36.60683 | -79.80266 | 15988 ft | 260 kts | 194° |
| 2026-04-25 21:03 | 36.58916 | -79.80738 | 15980 ft | 259 kts | 199° |
| 2026-04-25 21:04 | 36.57174 | -79.81315 | 15974 ft | 258 kts | 200° |
| 2026-04-25 21:04 | 36.55449 | -79.81952 | 15968 ft | 257 kts | 204° |
| 2026-04-25 21:04 | 36.53839 | -79.82816 | 15965 ft | 254 kts | 211° |
| 2026-04-25 21:04 | 36.52286 | -79.83866 | 15961 ft | 253 kts | 214° |
| 2026-04-25 21:05 | 36.50774 | -79.85003 | 15957 ft | 252 kts | 216° |
| 2026-04-25 21:05 | 36.49305 | -79.86163 | 15953 ft | 252 kts | 217° |
| 2026-04-25 21:05 | 36.47829 | -79.87352 | 15950 ft | 252 kts | 217° |
| 2026-04-25 21:05 | 36.46360 | -79.88545 | 15948 ft | 252 kts | 217° |
| 2026-04-25 21:06 | 36.44894 | -79.89739 | 15947 ft | 252 kts | 217° |
| 2026-04-25 21:06 | 36.43425 | -79.90934 | 15946 ft | 252 kts | 217° |
| 2026-04-25 21:06 | 36.41973 | -79.92114 | 15947 ft | 252 kts | 217° |
| 2026-04-25 21:06 | 36.41478 | -79.92516 | 15947 ft | 252 kts | 217° |
| 2026-04-25 21:07 | 36.39031 | -79.94498 | 15949 ft | 252 kts | 217° |
| 2026-04-25 21:07 | 36.38053 | -79.95290 | 15949 ft | 252 kts | 217° |
| 2026-04-25 21:07 | 36.36582 | -79.96479 | 15951 ft | 252 kts | 217° |
| 2026-04-25 21:07 | 36.35105 | -79.97672 | 15952 ft | 252 kts | 217° |
| 2026-04-25 21:08 | 36.33633 | -79.98860 | 15952 ft | 252 kts | 217° |
| 2026-04-25 21:08 | 36.32166 | -80.00057 | 15952 ft | 252 kts | 218° |
| 2026-04-25 21:08 | 36.30734 | -80.01267 | 15952 ft | 252 kts | 218° |
| 2026-04-25 21:08 | 36.29291 | -80.02507 | 15949 ft | 252 kts | 219° |
| 2026-04-25 21:09 | 36.26421 | -80.04984 | 16006 ft | 250 kts | 219° |
| 2026-04-25 21:09 | 36.24986 | -80.06221 | 16015 ft | 250 kts | 219° |
| 2026-04-25 21:09 | 36.23556 | -80.07454 | 16016 ft | 251 kts | 219° |
| 2026-04-25 21:10 | 36.22132 | -80.08679 | 16016 ft | 251 kts | 218° |
| 2026-04-25 21:10 | 36.20697 | -80.09912 | 16016 ft | 251 kts | 218° |
| 2026-04-25 21:10 | 36.19251 | -80.11154 | 16018 ft | 251 kts | 218° |
| 2026-04-25 21:10 | 36.17827 | -80.12374 | 16018 ft | 252 kts | 218° |
| 2026-04-25 21:11 | 36.16380 | -80.13615 | 16018 ft | 253 kts | 218° |
| 2026-04-25 21:11 | 36.14928 | -80.14860 | 16018 ft | 254 kts | 218° |
| 2026-04-25 21:11 | 36.13491 | -80.16091 | 16018 ft | 254 kts | 218° |
| 2026-04-25 21:11 | 36.12027 | -80.17344 | 16017 ft | 254 kts | 218° |
| 2026-04-25 21:12 | 36.10566 | -80.18592 | 16017 ft | 254 kts | 218° |
| 2026-04-25 21:12 | 36.09131 | -80.19819 | 16019 ft | 251 kts | 218° |
| 2026-04-25 21:12 | 36.07680 | -80.21059 | 15837 ft | 253 kts | 219° |
| 2026-04-25 21:12 | 36.06712 | -80.21894 | 15668 ft | 254 kts | 219° |
| 2026-04-25 21:13 | 36.04770 | -80.23562 | 15307 ft | 257 kts | 218° |
| 2026-04-25 21:13 | 36.03284 | -80.24828 | 15032 ft | 259 kts | 218° |
| 2026-04-25 21:13 | 36.01801 | -80.26093 | 14766 ft | 260 kts | 216° |
| 2026-04-25 21:13 | 36.00331 | -80.27352 | 14540 ft | 259 kts | 216° |
| 2026-04-25 21:14 | 35.98852 | -80.28614 | 14363 ft | 257 kts | 216° |
| 2026-04-25 21:14 | 35.97386 | -80.29862 | 14150 ft | 251 kts | 216° |
| 2026-04-25 21:14 | 35.95951 | -80.31083 | 13732 ft | 249 kts | 216° |
| 2026-04-25 21:14 | 35.94529 | -80.32294 | 13283 ft | 248 kts | 216° |
| 2026-04-25 21:15 | 35.93102 | -80.33510 | 12812 ft | 249 kts | 216° |
| 2026-04-25 21:15 | 35.91679 | -80.34721 | 12341 ft | 252 kts | 216° |
| 2026-04-25 21:15 | 35.90231 | -80.35953 | 11910 ft | 253 kts | 216° |
| 2026-04-25 21:15 | 35.88772 | -80.37193 | 11486 ft | 253 kts | 216° |
| 2026-04-25 21:16 | 35.87341 | -80.38409 | 11166 ft | 250 kts | 216° |
| 2026-04-25 21:16 | 35.85932 | -80.39603 | 10935 ft | 244 kts | 216° |
| 2026-04-25 21:16 | 35.84524 | -80.40797 | 10583 ft | 246 kts | 216° |
| 2026-04-25 21:16 | 35.83118 | -80.41982 | 10333 ft | 245 kts | 214° |
| 2026-04-25 21:17 | 35.81689 | -80.43126 | 10105 ft | 243 kts | 213° |
| 2026-04-25 21:17 | 35.80264 | -80.44253 | 9859 ft | 242 kts | 216° |
| 2026-04-25 21:17 | 35.78882 | -80.45455 | 9580 ft | 242 kts | 216° |
| 2026-04-25 21:17 | 35.77515 | -80.46641 | 9283 ft | 243 kts | 216° |
| 2026-04-25 21:18 | 35.76126 | -80.47835 | 8983 ft | 244 kts | 216° |
| 2026-04-25 21:18 | 35.74723 | -80.49027 | 8698 ft | 243 kts | 215° |
| 2026-04-25 21:18 | 35.73326 | -80.50203 | 8423 ft | 242 kts | 215° |
| 2026-04-25 21:18 | 35.71953 | -80.51354 | 8201 ft | 240 kts | 215° |
| 2026-04-25 21:19 | 35.70574 | -80.52505 | 7975 ft | 238 kts | 215° |
| 2026-04-25 21:19 | 35.69200 | -80.53651 | 7749 ft | 237 kts | 215° |
| 2026-04-25 21:19 | 35.67832 | -80.54791 | 7522 ft | 237 kts | 215° |
| 2026-04-25 21:19 | 35.66469 | -80.55927 | 7297 ft | 237 kts | 215° |
| 2026-04-25 21:20 | 35.65121 | -80.57049 | 7074 ft | 236 kts | 215° |
| 2026-04-25 21:20 | 35.64203 | -80.57814 | 6922 ft | 236 kts | 215° |
| 2026-04-25 21:20 | 35.62398 | -80.59316 | 6623 ft | 236 kts | 215° |
| 2026-04-25 21:20 | 35.61039 | -80.60447 | 6398 ft | 235 kts | 215° |
| 2026-04-25 21:21 | 35.59694 | -80.61566 | 6167 ft | 230 kts | 215° |
| 2026-04-25 21:21 | 35.58371 | -80.62666 | 5915 ft | 228 kts | 215° |
| 2026-04-25 21:21 | 35.57078 | -80.63740 | 5668 ft | 226 kts | 215° |
| 2026-04-25 21:21 | 35.55774 | -80.64823 | 5358 ft | 224 kts | 215° |
| 2026-04-25 21:22 | 35.54457 | -80.65850 | 4927 ft | 226 kts | 207° |
| 2026-04-25 21:22 | 35.52919 | -80.66254 | 4506 ft | 229 kts | 183° |
| 2026-04-25 21:22 | 35.51344 | -80.66094 | 4167 ft | 228 kts | 173° |
| 2026-04-25 21:22 | 35.49807 | -80.65823 | 4055 ft | 216 kts | 178° |
| 2026-04-25 21:23 | 35.48341 | -80.65863 | 4026 ft | 205 kts | 186° |
| 2026-04-25 21:23 | 35.46948 | -80.66029 | 4021 ft | 205 kts | 188° |
| 2026-04-25 21:23 | 35.45491 | -80.66240 | 4024 ft | 214 kts | 188° |
| 2026-04-25 21:23 | 35.43985 | -80.66470 | 4022 ft | 220 kts | 189° |
| 2026-04-25 21:24 | 35.42451 | -80.66709 | 4022 ft | 224 kts | 189° |
| 2026-04-25 21:24 | 35.40903 | -80.66952 | 4020 ft | 226 kts | 189° |
| 2026-04-25 21:24 | 35.39333 | -80.67200 | 4020 ft | 228 kts | 189° |
| 2026-04-25 21:24 | 35.37755 | -80.67449 | 4019 ft | 229 kts | 189° |
| 2026-04-25 21:25 | 35.36167 | -80.67702 | 4017 ft | 229 kts | 189° |
| 2026-04-25 21:25 | 35.34603 | -80.67950 | 4019 ft | 230 kts | 189° |
| 2026-04-25 21:25 | 35.33002 | -80.68205 | 4018 ft | 232 kts | 189° |
| 2026-04-25 21:25 | 35.31392 | -80.68461 | 4017 ft | 233 kts | 189° |
| 2026-04-25 21:26 | 35.29799 | -80.68716 | 4016 ft | 234 kts | 189° |
| 2026-04-25 21:26 | 35.28180 | -80.68976 | 4014 ft | 235 kts | 189° |
| 2026-04-25 21:26 | 35.26552 | -80.69237 | 4012 ft | 235 kts | 189° |
| 2026-04-25 21:26 | 35.24928 | -80.69497 | 4010 ft | 235 kts | 189° |
| 2026-04-25 21:27 | 35.23316 | -80.69756 | 4008 ft | 235 kts | 189° |
| 2026-04-25 21:27 | 35.21691 | -80.70017 | 4005 ft | 235 kts | 189° |
| 2026-04-25 21:27 | 35.20060 | -80.70280 | 4003 ft | 236 kts | 189° |
| 2026-04-25 21:27 | 35.18429 | -80.70542 | 4001 ft | 235 kts | 189° |
| 2026-04-25 21:28 | 35.16821 | -80.70801 | 3998 ft | 236 kts | 189° |
| 2026-04-25 21:28 | 35.15184 | -80.71065 | 3995 ft | 236 kts | 189° |
| 2026-04-25 21:28 | 35.13557 | -80.71328 | 3992 ft | 236 kts | 189° |
| 2026-04-25 21:28 | 35.11942 | -80.71589 | 3989 ft | 236 kts | 189° |
| 2026-04-25 21:29 | 35.10314 | -80.71852 | 3987 ft | 236 kts | 189° |
| 2026-04-25 21:29 | 35.08693 | -80.72123 | 3985 ft | 235 kts | 191° |
| 2026-04-25 21:29 | 35.07196 | -80.72868 | 3984 ft | 233 kts | 216° |
| 2026-04-25 21:29 | 35.06112 | -80.74319 | 3991 ft | 232 kts | 236° |
| 2026-04-25 21:30 | 35.05423 | -80.76100 | 3993 ft | 232 kts | 245° |
| 2026-04-25 21:30 | 35.04758 | -80.77864 | 3988 ft | 227 kts | 245° |
| 2026-04-25 21:30 | 35.04119 | -80.79573 | 3984 ft | 215 kts | 245° |
| 2026-04-25 21:30 | 35.03754 | -80.80678 | 3985 ft | 209 kts | 251° |
| 2026-04-25 21:31 | 35.03080 | -80.82820 | 3985 ft | 194 kts | 246° |
| 2026-04-25 21:31 | 35.02737 | -80.84367 | 3964 ft | 187 kts | 264° |
| 2026-04-25 21:31 | 35.02742 | -80.85952 | 3798 ft | 188 kts | 271° |
| 2026-04-25 21:31 | 35.02991 | -80.87527 | 3627 ft | 190 kts | 284° |
| 2026-04-25 21:32 | 35.03518 | -80.88994 | 3456 ft | 192 kts | 298° |
| 2026-04-25 21:32 | 35.04261 | -80.90370 | 3282 ft | 193 kts | 302° |
| 2026-04-25 21:32 | 35.05042 | -80.91686 | 3114 ft | 194 kts | 304° |
| 2026-04-25 21:32 | 35.06079 | -80.92719 | 3014 ft | 194 kts | 334° |
| 2026-04-25 21:33 | 35.07402 | -80.92908 | 3000 ft | 191 kts | 5° |
| 2026-04-25 21:33 | 35.08671 | -80.92551 | 3029 ft | 179 kts | 13° |
| 2026-04-25 21:33 | 35.09809 | -80.92260 | 2964 ft | 161 kts | 5° |
| 2026-04-25 21:33 | 35.10917 | -80.92240 | 2704 ft | 156 kts | 353° |
| 2026-04-25 21:34 | 35.11986 | -80.92440 | 2419 ft | 153 kts | 345° |
| 2026-04-25 21:34 | 35.13008 | -80.92702 | 2166 ft | 150 kts | 345° |
| 2026-04-25 21:34 | 35.14024 | -80.92909 | 1942 ft | 145 kts | 349° |
| 2026-04-25 21:34 | 35.15018 | -80.93023 | 1751 ft | 140 kts | 353° |
| 2026-04-25 21:35 | 35.15966 | -80.93082 | 1576 ft | 135 kts | 354° |
| 2026-04-25 21:35 | 35.16889 | -80.93125 | 1430 ft | 131 kts | 354° |
| 2026-04-25 21:35 | 35.17795 | -80.93212 | 1250 ft | 129 kts | 352° |
| 2026-04-25 21:35 | 35.18686 | -80.93287 | 1051 ft | 128 kts | 352° |
| 2026-04-25 21:36 | 35.19549 | -80.93369 | 902 ft | 123 kts | 353° |
| 2026-04-25 21:36 | 35.20393 | -80.93438 | 755 ft | 116 kts | 352° |
| 2026-04-25 21:36 | 35.21140 | -80.93503 | 753 ft | 98 kts | 356° |
| 2026-04-25 21:36 | 35.21560 | -80.93537 | 752 ft | 6 kts | 19° |
| 2026-04-25 21:37 | 35.21581 | -80.93461 | 752 ft | 15 kts | 84° |
| 2026-04-25 21:37 | 35.21551 | -80.93399 | 752 ft | 12 kts | 166° |
| 2026-04-25 21:37 | 35.21458 | -80.93388 | 752 ft | 11 kts | 176° |
| 2026-04-25 21:37 | 35.21342 | -80.93377 | 752 ft | 22 kts | 176° |
| 2026-04-25 21:38 | 35.21185 | -80.93364 | 752 ft | 18 kts | 178° |
| 2026-04-25 21:38 | 35.21140 | -80.93286 | 752 ft | 12 kts | 91° |
| 2026-04-25 21:38 | 35.21140 | -80.93204 | 752 ft | 7 kts | 90° |
| 2026-04-25 21:38 | 35.21129 | -80.93174 | 752 ft | 3 kts | 159° |
| 2026-04-25 21:39 | 35.21114 | -80.93182 | 752 ft | 0 kts | 262° |